createdAt,value
2022-09-03T00:00:17.729Z,33.71
2022-09-03T00:03:34.596Z,34.02
2022-09-03T00:06:21.178Z,33.53
2022-09-03T00:09:07.848Z,33.31
2022-09-03T00:11:50.888Z,34.21
2022-09-03T00:14:35.241Z,33.55
2022-09-03T00:17:08.017Z,33.78
2022-09-03T00:19:44.876Z,34.31
2022-09-03T00:22:19.250Z,33.61
2022-09-03T00:24:50.461Z,34.31
2022-09-03T00:27:22.944Z,34.60
2022-09-03T00:30:04.401Z,34.25
2022-09-03T00:33:07.149Z,34.10
2022-09-03T00:35:45.005Z,33.72
2022-09-03T00:38:13.915Z,34.36
2022-09-03T00:41:19.172Z,34.72
2022-09-03T00:44:26.644Z,34.60
2022-09-03T00:47:34.027Z,34.30
2022-09-03T00:50:35.317Z,34.01
2022-09-03T00:53:15.658Z,34.90
2022-09-03T00:56:04.183Z,34.42
2022-09-03T00:58:52.032Z,34.58
2022-09-03T01:01:43.968Z,33.93
2022-09-03T01:04:45.200Z,35.04
2022-09-03T01:07:19.222Z,35.41
2022-09-03T01:10:28.711Z,34.46
2022-09-03T01:13:14.036Z,35.77
2022-09-03T01:16:24.937Z,35.20
2022-09-03T01:18:56.307Z,35.57
2022-09-03T01:22:03.535Z,35.31
2022-09-03T01:25:03.572Z,36.11
2022-09-03T01:28:13.849Z,35.63
2022-09-03T01:30:49.669Z,34.43
2022-09-03T01:33:48.977Z,34.66
2022-09-03T01:36:32.349Z,35.57
2022-09-03T01:39:09.058Z,34.70
2022-09-03T01:42:20.814Z,35.08
2022-09-03T01:45:31.383Z,35.40
2022-09-03T01:48:38.221Z,35.72
2022-09-03T01:51:15.797Z,34.59
2022-09-03T01:54:17.938Z,35.14
2022-09-03T01:57:35.493Z,34.68
2022-09-03T02:00:13.370Z,34.47
2022-09-03T02:02:43.700Z,35.26
2022-09-03T02:05:29.844Z,35.40
2022-09-03T02:08:06.929Z,35.94
2022-09-03T02:10:46.001Z,35.44
2022-09-03T02:13:18.878Z,35.98
2022-09-03T02:15:50.860Z,35.33
2022-09-03T02:18:31.069Z,35.64
2022-09-03T02:21:03.499Z,36.15
2022-09-03T02:23:31.528Z,35.57
2022-09-03T02:26:02.996Z,35.67
2022-09-03T02:28:33.085Z,35.70
2022-09-03T02:31:01.285Z,35.88
2022-09-03T02:33:36.928Z,35.57
2022-09-03T02:36:09.715Z,36.16
2022-09-03T02:38:38.468Z,35.70
2022-09-03T02:41:08.162Z,35.37
2022-09-03T02:43:56.302Z,35.48
2022-09-03T02:46:34.074Z,35.84
2022-09-03T02:49:02.310Z,35.17
2022-09-03T02:51:36.576Z,35.84
2022-09-03T02:54:07.076Z,35.81
2022-09-03T02:56:35.767Z,36.49
2022-09-03T02:59:05.947Z,35.45
2022-09-03T03:01:36.032Z,36.15
2022-09-03T03:04:05.411Z,36.27
2022-09-03T03:06:33.546Z,37.18
2022-09-03T03:09:06.160Z,36.56
2022-09-03T03:11:34.692Z,36.41
2022-09-03T03:14:03.825Z,36.79
2022-09-03T03:16:32.949Z,35.94
2022-09-03T03:19:01.377Z,36.57
2022-09-03T03:21:31.165Z,35.44
2022-09-03T03:24:02.129Z,36.11
2022-09-03T03:26:30.253Z,35.58
2022-09-03T03:29:01.120Z,35.54
2022-09-03T03:31:31.790Z,36.26
2022-09-03T03:34:03.648Z,35.64
2022-09-03T03:36:33.386Z,36.60
2022-09-03T03:39:02.979Z,35.90
2022-09-03T03:41:33.953Z,36.21
2022-09-03T03:44:06.430Z,36.30
2022-09-03T03:46:41.240Z,36.14
2022-09-03T03:49:10.584Z,35.65
2022-09-03T03:51:43.244Z,36.68
2022-09-03T03:54:12.304Z,36.30
2022-09-03T03:56:55.662Z,36.15
2022-09-03T03:59:24.651Z,36.44
2022-09-03T04:01:56.802Z,36.42
2022-09-03T04:04:25.748Z,36.24
2022-09-03T04:06:55.842Z,36.32
2022-09-03T04:09:23.665Z,35.79
2022-09-03T04:11:56.500Z,36.33
2022-09-03T04:14:28.074Z,35.98
2022-09-03T04:16:57.162Z,36.73
2022-09-03T04:19:25.447Z,36.29
2022-09-03T04:21:54.701Z,36.16
2022-09-03T04:24:24.248Z,36.59
2022-09-03T04:26:54.245Z,36.46
2022-09-03T04:29:23.249Z,36.95
2022-09-03T04:32:09.766Z,37.36
2022-09-03T04:34:38.424Z,37.17
2022-09-03T04:37:06.444Z,37.21
2022-09-03T04:39:35.707Z,37.58
2022-09-03T04:42:04.501Z,37.17
2022-09-03T04:44:34.656Z,37.14
2022-09-03T04:47:04.114Z,36.47
2022-09-03T04:49:34.869Z,36.66
2022-09-03T04:52:04.816Z,36.71
2022-09-03T04:54:34.612Z,36.14
2022-09-03T04:57:07.479Z,36.44
2022-09-03T04:59:42.997Z,37.05
2022-09-03T05:02:11.439Z,37.47
2022-09-03T05:04:40.584Z,36.85
2022-09-03T05:07:09.183Z,37.13
2022-09-03T05:09:38.603Z,36.74
2022-09-03T05:12:09.030Z,36.99
2022-09-03T05:14:37.217Z,36.73
2022-09-03T05:17:06.683Z,36.72
2022-09-03T05:19:36.268Z,36.06
2022-09-03T05:22:04.426Z,35.96
2022-09-03T05:24:33.238Z,36.12
2022-09-03T05:27:03.760Z,35.65
2022-09-03T05:29:33.150Z,35.63
2022-09-03T05:32:01.363Z,35.47
2022-09-03T05:34:32.928Z,35.35
2022-09-03T05:37:01.593Z,35.40
2022-09-03T05:39:31.153Z,35.22
2022-09-03T05:42:27.192Z,34.78
2022-09-03T05:45:01.005Z,35.48
2022-09-03T05:47:29.428Z,35.75
2022-09-03T05:49:59.007Z,35.33
2022-09-03T05:52:27.644Z,35.30
2022-09-03T05:55:00.237Z,35.39
2022-09-03T06:06:22.196Z,35.07
2022-09-03T06:09:09.285Z,34.54
2022-09-03T06:17:56.275Z,33.52
2022-09-03T06:20:36.917Z,33.48
2022-09-03T06:23:10.241Z,33.21
2022-09-03T06:34:59.496Z,32.57
2022-09-03T06:37:44.315Z,32.63
2022-09-03T06:40:14.029Z,32.17
2022-09-03T06:42:45.925Z,32.44
2022-09-03T06:45:17.154Z,32.31
2022-09-03T06:47:45.572Z,32.14
2022-09-03T06:50:15.723Z,32.13
2022-09-03T06:52:44.328Z,32.25
2022-09-03T06:55:13.188Z,32.28
2022-09-03T06:57:42.730Z,32.20
2022-09-03T07:00:12.010Z,32.35
2022-09-03T07:02:44.891Z,32.17
2022-09-03T07:05:15.225Z,32.20
2022-09-03T07:07:44.836Z,32.80
2022-09-03T07:10:16.713Z,32.16
2022-09-03T07:12:45.321Z,32.52
2022-09-03T07:15:14.337Z,32.65
2022-09-03T07:17:44.365Z,31.44
2022-09-03T07:20:13.546Z,32.14
2022-09-03T07:22:41.273Z,31.69
2022-09-03T07:25:11.872Z,31.86
2022-09-03T07:27:42.469Z,31.39
2022-09-03T07:30:11.282Z,31.16
2022-09-03T07:32:41.427Z,31.52
2022-09-03T07:35:10.361Z,31.19
2022-09-03T07:37:43.263Z,31.28
2022-09-03T07:40:12.321Z,31.07
2022-09-03T07:42:41.646Z,31.29
2022-09-03T07:45:10.895Z,30.81
2022-09-03T07:47:50.255Z,31.49
2022-09-03T07:50:19.613Z,32.38
2022-09-03T07:52:48.176Z,31.05
2022-09-03T07:55:17.064Z,31.02
2022-09-03T07:57:45.311Z,30.78
2022-09-03T08:00:16.110Z,31.14
2022-09-03T08:02:48.016Z,32.36
2022-09-03T08:05:19.420Z,31.73
2022-09-03T08:07:48.640Z,31.36
2022-09-03T08:10:16.776Z,30.77
2022-09-03T08:12:45.578Z,32.38
2022-09-03T08:15:14.524Z,33.05
2022-09-03T08:17:45.340Z,31.34
2022-09-03T08:20:14.215Z,32.19
2022-09-03T08:22:43.485Z,30.13
2022-09-03T08:25:13.944Z,32.40
2022-09-03T08:27:45.888Z,30.93
2022-09-03T08:30:14.909Z,29.91
2022-09-03T08:32:44.117Z,29.39
2022-09-03T08:35:13.672Z,29.68
2022-09-03T08:37:42.342Z,28.91
2022-09-03T08:40:12.567Z,28.48
2022-09-03T08:43:06.897Z,28.76
2022-09-03T08:45:37.429Z,29.30
2022-09-03T08:48:14.368Z,29.48
2022-09-03T08:50:47.730Z,27.88
2022-09-03T08:53:52.425Z,29.14
2022-09-03T09:01:12.089Z,28.19
2022-09-03T09:03:59.580Z,28.58
2022-09-03T09:06:45.840Z,28.80
2022-09-03T09:09:55.517Z,28.61
2022-09-03T09:12:45.644Z,28.23
2022-09-03T09:15:43.706Z,28.72
2022-09-03T09:18:50.085Z,28.12
2022-09-03T09:21:27.863Z,27.72
2022-09-03T09:24:04.044Z,27.62
2022-09-03T09:26:33.949Z,27.60
2022-09-03T09:29:11.739Z,27.78
2022-09-03T09:31:55.785Z,28.04
2022-09-03T09:34:27.577Z,27.49
2022-09-03T09:36:57.010Z,27.34
2022-09-03T09:39:25.472Z,27.45
2022-09-03T09:42:09.812Z,26.95
2022-09-03T09:50:41.961Z,26.47
2022-09-03T09:53:15.757Z,26.13
2022-09-03T09:56:03.218Z,27.36
2022-09-03T09:58:35.035Z,27.21
2022-09-03T10:01:15.419Z,27.12
2022-09-03T10:03:57.210Z,27.55
2022-09-03T10:06:51.237Z,27.12
2022-09-03T10:09:30.885Z,27.49
2022-09-03T10:12:11.383Z,27.69
2022-09-03T10:15:20.979Z,27.63
2022-09-03T10:18:14.656Z,27.33
2022-09-03T10:21:05.288Z,27.82
2022-09-03T10:23:56.787Z,27.88
2022-09-03T10:26:35.979Z,27.75
2022-09-03T10:29:06.179Z,27.63
2022-09-03T10:31:54.359Z,27.84
2022-09-03T10:34:56.141Z,28.16
2022-09-03T10:38:09.491Z,28.32
2022-09-03T10:40:37.898Z,27.89
2022-09-03T10:43:47.985Z,27.99
2022-09-03T10:46:26.782Z,28.23
2022-09-03T10:49:11.131Z,28.27
2022-09-03T10:52:11.758Z,28.12
2022-09-03T10:54:39.560Z,27.55
2022-09-03T10:57:49.990Z,27.72
2022-09-03T11:00:19.900Z,27.61
2022-09-03T11:03:21.389Z,28.04
2022-09-03T11:05:52.258Z,27.90
2022-09-03T11:08:36.796Z,28.20
2022-09-03T11:11:15.709Z,28.11
2022-09-03T11:13:54.590Z,28.46
2022-09-03T11:16:31.553Z,28.17
2022-09-03T11:19:11.599Z,28.16
2022-09-03T11:21:44.427Z,28.46
2022-09-03T11:24:27.498Z,28.63
2022-09-03T11:27:01.147Z,28.50
2022-09-03T11:29:52.482Z,28.34
2022-09-03T11:32:36.705Z,28.66
2022-09-03T11:35:15.431Z,28.49
2022-09-03T11:38:21.663Z,28.12
2022-09-03T11:41:15.984Z,28.29
2022-09-03T11:43:44.514Z,28.46
2022-09-03T11:46:14.897Z,28.67
2022-09-03T11:48:47.181Z,28.92
2022-09-03T11:51:44.305Z,29.62
2022-09-03T11:54:21.134Z,29.16
2022-09-03T11:56:50.920Z,28.74
2022-09-03T11:59:24.185Z,29.23
2022-09-03T12:02:01.738Z,29.09
2022-09-03T12:04:41.130Z,28.87
2022-09-03T12:07:28.142Z,29.49
2022-09-03T12:10:28.419Z,29.94
2022-09-03T12:13:19.021Z,29.84
2022-09-03T12:16:05.949Z,29.99
2022-09-03T12:18:36.332Z,29.97
2022-09-03T12:21:08.728Z,29.64
2022-09-03T12:23:45.774Z,30.30
2022-09-03T12:26:20.229Z,30.23
2022-09-03T12:28:52.754Z,30.36
2022-09-03T12:31:25.818Z,30.13
2022-09-03T12:33:59.497Z,30.55
2022-09-03T12:36:54.374Z,30.65
2022-09-03T12:42:27.463Z,30.69
2022-09-03T12:45:12.932Z,30.58
2022-09-03T12:47:43.404Z,30.99
2022-09-03T12:50:19.712Z,30.32
2022-09-03T12:52:53.736Z,30.45
2022-09-03T12:55:47.448Z,30.71
2022-09-03T12:58:25.930Z,30.53
2022-09-03T13:01:13.373Z,30.87
2022-09-03T13:03:51.064Z,30.90
2022-09-03T13:06:23.499Z,31.42
2022-09-03T13:09:00.376Z,31.05
2022-09-03T13:11:33.555Z,30.87
2022-09-03T13:14:10.520Z,31.58
2022-09-03T13:17:18.508Z,32.52
2022-09-03T13:20:17.749Z,34.04
2022-09-03T13:23:13.888Z,32.67
2022-09-03T13:26:00.739Z,32.83
2022-09-03T13:28:47.696Z,32.18
2022-09-03T13:31:48.709Z,32.54
2022-09-03T13:34:40.915Z,32.59
2022-09-03T13:37:32.604Z,32.65
2022-09-03T13:40:20.027Z,32.66
2022-09-03T13:42:58.122Z,32.39
2022-09-03T13:45:43.270Z,32.98
2022-09-03T13:48:44.318Z,32.74
2022-09-03T13:51:38.004Z,32.18
2022-09-03T13:54:48.097Z,32.57
2022-09-03T13:57:39.907Z,32.52
2022-09-03T14:00:15.536Z,32.45
2022-09-03T14:03:18.518Z,32.59
2022-09-03T14:06:26.539Z,32.07
2022-09-03T14:09:34.671Z,32.30
2022-09-03T14:12:28.017Z,32.26
2022-09-03T14:15:21.822Z,32.02
2022-09-03T14:18:33.450Z,31.91
2022-09-03T14:21:29.730Z,31.80
2022-09-03T14:24:49.520Z,32.44
2022-09-03T14:27:44.250Z,31.98
2022-09-03T14:30:44.652Z,32.12
2022-09-03T14:34:03.824Z,32.47
2022-09-03T14:36:37.797Z,32.15
2022-09-03T14:39:43.157Z,32.57
2022-09-03T14:42:55.504Z,32.23
2022-09-03T14:45:52.198Z,32.28
2022-09-03T14:48:46.208Z,32.75
2022-09-03T14:51:52.861Z,32.22
2022-09-03T14:54:59.804Z,32.59
2022-09-03T14:57:28.411Z,32.72
2022-09-03T15:00:33.140Z,32.51
2022-09-03T15:03:24.209Z,32.37
2022-09-03T15:06:20.472Z,32.30
2022-09-03T15:09:39.815Z,32.87
2022-09-03T15:13:07.194Z,32.96
2022-09-03T15:15:49.349Z,33.12
2022-09-03T15:19:16.960Z,32.45
2022-09-03T15:22:12.732Z,32.48
2022-09-03T15:25:22.521Z,32.63
2022-09-03T15:27:54.551Z,32.98
2022-09-03T15:30:23.867Z,33.13
2022-09-03T15:33:03.730Z,33.09
2022-09-03T15:36:18.048Z,33.57
2022-09-03T15:39:05.965Z,33.38
2022-09-03T15:41:57.643Z,32.64
2022-09-03T15:44:37.950Z,32.32
2022-09-03T15:47:15.382Z,32.74
2022-09-03T15:49:52.533Z,32.76
2022-09-03T15:52:59.554Z,33.12
2022-09-03T15:55:41.080Z,34.10
2022-09-03T15:58:31.576Z,33.87
2022-09-03T16:01:11.655Z,34.05
2022-09-03T16:04:14.219Z,34.17
2022-09-03T16:06:56.901Z,33.56
2022-09-03T16:09:33.952Z,34.26
2022-09-03T16:12:21.712Z,33.82
2022-09-03T16:15:04.036Z,33.97
2022-09-03T16:17:43.844Z,34.41
2022-09-03T16:20:24.021Z,33.83
2022-09-03T16:23:01.263Z,34.17
2022-09-03T16:25:45.499Z,33.59
2022-09-03T16:28:19.653Z,34.27
2022-09-03T16:31:15.955Z,33.72
2022-09-03T16:34:22.984Z,34.30
2022-09-03T16:37:30.654Z,34.08
2022-09-03T16:40:29.039Z,33.95
2022-09-03T16:43:40.739Z,34.20
2022-09-03T16:46:42.031Z,33.86
2022-09-03T16:49:52.002Z,33.70
2022-09-03T16:52:47.272Z,34.04
2022-09-03T16:55:35.252Z,34.85
2022-09-03T16:58:27.462Z,35.81
2022-09-03T17:01:27.809Z,36.23
2022-09-03T17:04:34.400Z,36.18
2022-09-03T17:07:53.483Z,36.39
2022-09-03T17:10:40.408Z,36.25
2022-09-03T17:13:11.043Z,36.87
2022-09-03T17:16:23.610Z,36.79
2022-09-03T17:19:18.276Z,37.31
2022-09-03T17:22:25.437Z,38.06
2022-09-03T17:25:07.845Z,38.60
2022-09-03T17:27:52.175Z,40.31
2022-09-03T17:30:44.534Z,39.52
2022-09-03T17:33:41.636Z,40.87
2022-09-03T17:36:23.175Z,41.44
2022-09-03T17:39:44.406Z,42.93
2022-09-03T17:42:33.876Z,48.99
2022-09-03T17:45:40.435Z,55.56
2022-09-03T17:49:01.509Z,54.91
2022-09-03T17:51:37.222Z,57.78
2022-09-03T17:54:23.866Z,58.46
2022-09-03T17:57:03.040Z,62.96
2022-09-03T18:00:07.274Z,69.65
2022-09-03T18:02:40.525Z,68.34
2022-09-03T18:05:47.151Z,67.09
2022-09-03T18:08:36.961Z,71.50
2022-09-03T18:11:19.725Z,71.30
2022-09-03T18:13:56.316Z,73.26
2022-09-03T18:16:36.125Z,79.11
2022-09-03T18:19:32.803Z,81.85
2022-09-03T18:22:25.450Z,81.34
2022-09-03T18:25:19.371Z,80.32
2022-09-03T18:28:18.359Z,78.61
2022-09-03T18:31:05.575Z,82.06
2022-09-03T18:33:54.607Z,84.50
2022-09-03T18:36:43.390Z,89.02
2022-09-03T18:39:46.636Z,87.78
2022-09-03T18:43:06.647Z,89.40
2022-09-03T18:50:30.170Z,100.00
2022-09-03T18:53:53.460Z,100.00
2022-09-03T18:56:40.107Z,96.95
2022-09-03T18:59:27.833Z,100.00
2022-09-03T19:02:16.649Z,100.00
2022-09-03T19:05:53.364Z,100.00
2022-09-03T19:08:53.588Z,100.00
2022-09-03T19:11:55.698Z,100.00
2022-09-03T19:15:00.889Z,100.00
2022-09-03T19:18:13.357Z,100.00
2022-09-03T19:21:11.637Z,100.00
2022-09-03T19:23:58.696Z,100.00
2022-09-03T19:27:23.612Z,100.00
2022-09-03T19:30:55.342Z,100.00
2022-09-03T19:33:51.299Z,100.00
2022-09-03T19:37:15.519Z,100.00
2022-09-03T19:40:27.012Z,100.00
2022-09-03T19:43:39.705Z,100.00
2022-09-03T19:46:34.684Z,100.00
2022-09-03T19:49:38.657Z,100.00
2022-09-03T19:53:09.393Z,100.00
2022-09-03T19:56:06.607Z,100.00
2022-09-03T19:58:58.553Z,100.00
2022-09-03T20:01:52.227Z,100.00
2022-09-03T20:04:41.994Z,100.00
2022-09-03T20:07:29.606Z,100.00
2022-09-03T20:10:22.857Z,100.00
2022-09-03T20:12:54.402Z,100.00
2022-09-03T20:15:27.741Z,100.00
2022-09-03T20:18:26.586Z,100.00
2022-09-03T20:21:19.365Z,100.00
2022-09-03T20:23:58.731Z,100.00
2022-09-03T20:26:38.656Z,100.00
2022-09-03T20:29:25.262Z,100.00
2022-09-03T20:31:59.080Z,100.00
2022-09-03T20:34:49.297Z,100.00
2022-09-03T20:37:58.099Z,100.00
2022-09-03T20:40:47.351Z,100.00
2022-09-03T20:43:37.966Z,100.00
2022-09-03T20:46:26.106Z,100.00
2022-09-03T20:49:13.722Z,100.00
2022-09-03T20:52:09.747Z,100.00
2022-09-03T20:54:50.645Z,100.00
2022-09-03T20:57:49.727Z,100.00
2022-09-03T21:00:21.416Z,100.00
2022-09-03T21:03:26.525Z,100.00
2022-09-03T21:06:31.187Z,100.00
2022-09-03T21:09:06.371Z,100.00
2022-09-03T21:11:55.510Z,100.00
2022-09-03T21:14:40.718Z,100.00
2022-09-03T21:17:55.593Z,100.00
2022-09-03T21:20:44.357Z,100.00
2022-09-03T21:23:24.819Z,100.00
2022-09-03T21:26:06.628Z,100.00
2022-09-03T21:28:51.121Z,100.00
2022-09-03T21:31:32.109Z,100.00
2022-09-03T21:34:34.003Z,100.00
2022-09-03T21:37:04.975Z,100.00
2022-09-03T21:39:47.727Z,100.00
2022-09-03T21:42:31.276Z,100.00
2022-09-03T21:45:18.719Z,100.00
2022-09-03T21:47:58.555Z,100.00
2022-09-03T21:50:34.192Z,100.00
2022-09-03T21:53:45.150Z,100.00
2022-09-03T21:56:34.333Z,100.00
2022-09-03T21:59:39.642Z,100.00
2022-09-03T22:02:21.980Z,98.07
2022-09-03T22:04:51.004Z,98.20
2022-09-03T22:07:53.615Z,100.00
2022-09-03T22:11:08.022Z,100.00
2022-09-03T22:14:05.990Z,100.00
2022-09-03T22:16:42.659Z,100.00
2022-09-03T22:19:11.631Z,98.54
2022-09-03T22:22:00.166Z,100.00
2022-09-03T22:24:49.924Z,100.00
2022-09-03T22:27:44.564Z,100.00
2022-09-03T22:30:14.924Z,99.79
2022-09-03T22:33:03.778Z,99.24
2022-09-03T22:35:54.213Z,100.00
2022-09-03T22:38:46.756Z,95.05
2022-09-03T22:41:47.990Z,95.94
2022-09-03T22:44:30.966Z,100.00
2022-09-03T22:47:08.273Z,95.68
2022-09-03T22:49:59.803Z,94.99
2022-09-03T22:52:45.803Z,94.47
2022-09-03T22:55:23.477Z,96.17
2022-09-03T22:58:26.345Z,94.27
2022-09-03T23:01:07.987Z,95.59
2022-09-03T23:03:42.444Z,95.63
2022-09-03T23:06:20.427Z,94.27
2022-09-03T23:08:54.742Z,94.45
2022-09-03T23:11:47.802Z,99.36
2022-09-03T23:14:21.623Z,96.44
2022-09-03T23:16:54.821Z,98.07
2022-09-03T23:19:43.914Z,97.38
2022-09-03T23:22:14.580Z,97.19
2022-09-03T23:24:58.477Z,94.31
2022-09-03T23:27:35.328Z,95.53
2022-09-03T23:30:03.597Z,94.69
2022-09-03T23:32:33.199Z,96.50
2022-09-03T23:35:07.246Z,92.93
2022-09-03T23:38:04.363Z,97.07
2022-09-03T23:40:52.144Z,98.39
2022-09-03T23:43:52.738Z,97.36
2022-09-03T23:46:23.340Z,99.58
2022-09-03T23:48:59.881Z,98.65
2022-09-03T23:51:30.457Z,96.69
2022-09-03T23:54:20.161Z,97.43
2022-09-03T23:57:04.419Z,97.61
